sensor_id;sensor_type;location;lat;lon;timestamp;P1;durP1;ratioP1;P2;durP2;ratioP2
77586;SDS011;66744;49.716;17.158;2024-02-26T00:02:00;38.28;;;22.80;;
77586;SDS011;66744;49.716;17.158;2024-02-26T00:05:08;37.83;;;21.83;;
77586;SDS011;66744;49.716;17.158;2024-02-26T00:08:12;40.00;;;22.15;;
77586;SDS011;66744;49.716;17.158;2024-02-26T00:11:13;35.97;;;21.13;;
77586;SDS011;66744;49.716;17.158;2024-02-26T00:14:14;40.70;;;22.98;;
77586;SDS011;66744;49.716;17.158;2024-02-26T00:17:15;36.58;;;21.33;;
77586;SDS011;66744;49.716;17.158;2024-02-26T00:20:17;36.83;;;21.02;;
77586;SDS011;66744;49.716;17.158;2024-02-26T00:23:18;38.55;;;22.25;;
77586;SDS011;66744;49.716;17.158;2024-02-26T00:26:19;39.00;;;21.60;;
77586;SDS011;66744;49.716;17.158;2024-02-26T00:29:21;36.58;;;22.90;;
77586;SDS011;66744;49.716;17.158;2024-02-26T00:32:22;40.40;;;22.45;;
77586;SDS011;66744;49.716;17.158;2024-02-26T00:35:24;36.67;;;21.92;;
77586;SDS011;66744;49.716;17.158;2024-02-26T00:38:28;37.70;;;21.02;;
77586;SDS011;66744;49.716;17.158;2024-02-26T00:41:37;37.78;;;21.02;;
77586;SDS011;66744;49.716;17.158;2024-02-26T00:44:40;33.45;;;19.27;;
77586;SDS011;66744;49.716;17.158;2024-02-26T00:47:42;32.47;;;20.58;;
77586;SDS011;66744;49.716;17.158;2024-02-26T00:50:47;35.65;;;19.88;;
77586;SDS011;66744;49.716;17.158;2024-02-26T00:53:48;31.58;;;18.48;;
77586;SDS011;66744;49.716;17.158;2024-02-26T00:56:51;31.98;;;19.45;;
77586;SDS011;66744;49.716;17.158;2024-02-26T00:59:52;32.15;;;19.67;;
77586;SDS011;66744;49.716;17.158;2024-02-26T01:02:56;30.73;;;19.60;;
77586;SDS011;66744;49.716;17.158;2024-02-26T01:05:58;34.60;;;19.70;;
77586;SDS011;66744;49.716;17.158;2024-02-26T01:09:00;32.40;;;19.25;;
77586;SDS011;66744;49.716;17.158;2024-02-26T01:12:03;29.83;;;18.02;;
77586;SDS011;66744;49.716;17.158;2024-02-26T01:15:10;30.30;;;16.25;;
77586;SDS011;66744;49.716;17.158;2024-02-26T01:18:13;29.10;;;18.25;;
77586;SDS011;66744;49.716;17.158;2024-02-26T01:21:15;29.33;;;17.20;;
77586;SDS011;66744;49.716;17.158;2024-02-26T01:24:18;29.15;;;17.85;;
77586;SDS011;66744;49.716;17.158;2024-02-26T01:27:20;27.48;;;16.60;;
77586;SDS011;66744;49.716;17.158;2024-02-26T01:30:22;30.65;;;16.73;;
77586;SDS011;66744;49.716;17.158;2024-02-26T01:33:27;28.38;;;16.42;;
77586;SDS011;66744;49.716;17.158;2024-02-26T01:36:30;27.48;;;16.08;;
77586;SDS011;66744;49.716;17.158;2024-02-26T01:39:31;31.30;;;17.85;;
77586;SDS011;66744;49.716;17.158;2024-02-26T01:42:37;28.83;;;16.02;;
77586;SDS011;66744;49.716;17.158;2024-02-26T01:45:44;27.50;;;16.38;;
77586;SDS011;66744;49.716;17.158;2024-02-26T01:48:46;23.77;;;14.60;;
77586;SDS011;66744;49.716;17.158;2024-02-26T01:51:51;28.83;;;14.85;;
77586;SDS011;66744;49.716;17.158;2024-02-26T01:54:54;23.85;;;13.63;;
77586;SDS011;66744;49.716;17.158;2024-02-26T01:57:58;23.75;;;13.60;;
77586;SDS011;66744;49.716;17.158;2024-02-26T02:05:08;26.52;;;14.07;;
77586;SDS011;66744;49.716;17.158;2024-02-26T02:08:17;22.92;;;12.82;;
77586;SDS011;66744;49.716;17.158;2024-02-26T02:11:18;23.10;;;13.80;;
77586;SDS011;66744;49.716;17.158;2024-02-26T02:14:20;22.60;;;13.10;;
77586;SDS011;66744;49.716;17.158;2024-02-26T02:17:26;24.73;;;13.95;;
77586;SDS011;66744;49.716;17.158;2024-02-26T02:20:32;20.50;;;12.60;;
77586;SDS011;66744;49.716;17.158;2024-02-26T02:23:34;25.45;;;14.05;;
77586;SDS011;66744;49.716;17.158;2024-02-26T02:26:38;24.52;;;14.07;;
77586;SDS011;66744;49.716;17.158;2024-02-26T02:29:47;26.33;;;15.23;;
77586;SDS011;66744;49.716;17.158;2024-02-26T02:32:52;25.55;;;14.25;;
77586;SDS011;66744;49.716;17.158;2024-02-26T02:36:03;27.55;;;14.57;;
77586;SDS011;66744;49.716;17.158;2024-02-26T02:42:14;22.58;;;13.35;;
77586;SDS011;66744;49.716;17.158;2024-02-26T02:45:17;25.05;;;15.93;;
77586;SDS011;66744;49.716;17.158;2024-02-26T02:48:21;23.02;;;13.30;;
77586;SDS011;66744;49.716;17.158;2024-02-26T02:51:26;26.05;;;14.90;;
77586;SDS011;66744;49.716;17.158;2024-02-26T02:54:32;25.33;;;15.02;;
77586;SDS011;66744;49.716;17.158;2024-02-26T02:57:37;26.70;;;15.60;;
77586;SDS011;66744;49.716;17.158;2024-02-26T03:00:44;25.05;;;14.73;;
77586;SDS011;66744;49.716;17.158;2024-02-26T03:03:45;24.45;;;13.38;;
77586;SDS011;66744;49.716;17.158;2024-02-26T03:06:51;25.38;;;14.40;;
77586;SDS011;66744;49.716;17.158;2024-02-26T03:09:54;22.42;;;13.55;;
77586;SDS011;66744;49.716;17.158;2024-02-26T03:12:57;23.92;;;13.85;;
77586;SDS011;66744;49.716;17.158;2024-02-26T03:16:09;26.10;;;13.88;;
77586;SDS011;66744;49.716;17.158;2024-02-26T03:19:16;25.90;;;14.45;;
77586;SDS011;66744;49.716;17.158;2024-02-26T03:22:18;26.23;;;15.82;;
77586;SDS011;66744;49.716;17.158;2024-02-26T03:25:22;28.67;;;16.80;;
77586;SDS011;66744;49.716;17.158;2024-02-26T03:28:23;26.77;;;16.15;;
77586;SDS011;66744;49.716;17.158;2024-02-26T03:31:30;23.17;;;13.95;;
77586;SDS011;66744;49.716;17.158;2024-02-26T03:34:37;27.55;;;14.30;;
77586;SDS011;66744;49.716;17.158;2024-02-26T03:37:43;26.65;;;14.35;;
77586;SDS011;66744;49.716;17.158;2024-02-26T03:40:49;22.67;;;13.23;;
77586;SDS011;66744;49.716;17.158;2024-02-26T03:43:52;22.77;;;13.30;;
77586;SDS011;66744;49.716;17.158;2024-02-26T03:46:56;19.45;;;12.35;;
77586;SDS011;66744;49.716;17.158;2024-02-26T03:50:01;23.38;;;13.60;;
77586;SDS011;66744;49.716;17.158;2024-02-26T03:53:05;22.30;;;13.25;;
77586;SDS011;66744;49.716;17.158;2024-02-26T03:56:07;21.58;;;13.02;;
77586;SDS011;66744;49.716;17.158;2024-02-26T03:59:11;23.58;;;13.07;;
77586;SDS011;66744;49.716;17.158;2024-02-26T04:02:19;23.00;;;12.80;;
77586;SDS011;66744;49.716;17.158;2024-02-26T04:05:23;22.20;;;13.35;;
77586;SDS011;66744;49.716;17.158;2024-02-26T04:08:25;22.88;;;12.93;;
77586;SDS011;66744;49.716;17.158;2024-02-26T04:11:28;23.67;;;13.90;;
77586;SDS011;66744;49.716;17.158;2024-02-26T04:14:31;26.42;;;14.55;;
77586;SDS011;66744;49.716;17.158;2024-02-26T04:17:36;21.85;;;13.35;;
77586;SDS011;66744;49.716;17.158;2024-02-26T04:20:38;23.75;;;13.82;;
77586;SDS011;66744;49.716;17.158;2024-02-26T04:23:45;23.45;;;12.88;;
77586;SDS011;66744;49.716;17.158;2024-02-26T04:26:47;22.13;;;12.40;;
77586;SDS011;66744;49.716;17.158;2024-02-26T04:29:51;20.75;;;11.98;;
77586;SDS011;66744;49.716;17.158;2024-02-26T04:32:54;26.98;;;14.00;;
77586;SDS011;66744;49.716;17.158;2024-02-26T04:35:55;22.70;;;12.40;;
77586;SDS011;66744;49.716;17.158;2024-02-26T04:38:56;23.17;;;13.50;;
77586;SDS011;66744;49.716;17.158;2024-02-26T04:41:59;26.65;;;13.60;;
77586;SDS011;66744;49.716;17.158;2024-02-26T04:45:06;24.38;;;13.60;;
77586;SDS011;66744;49.716;17.158;2024-02-26T04:48:09;23.30;;;13.35;;
77586;SDS011;66744;49.716;17.158;2024-02-26T04:51:11;23.65;;;12.95;;
77586;SDS011;66744;49.716;17.158;2024-02-26T04:54:18;23.65;;;13.38;;
77586;SDS011;66744;49.716;17.158;2024-02-26T04:57:24;21.30;;;12.48;;
77586;SDS011;66744;49.716;17.158;2024-02-26T05:00:28;22.50;;;13.10;;
77586;SDS011;66744;49.716;17.158;2024-02-26T05:03:30;19.48;;;12.00;;
77586;SDS011;66744;49.716;17.158;2024-02-26T05:06:32;23.35;;;12.48;;
77586;SDS011;66744;49.716;17.158;2024-02-26T05:09:34;27.17;;;14.30;;
77586;SDS011;66744;49.716;17.158;2024-02-26T05:12:35;25.00;;;12.48;;
77586;SDS011;66744;49.716;17.158;2024-02-26T05:15:39;23.40;;;14.10;;
77586;SDS011;66744;49.716;17.158;2024-02-26T05:18:45;24.67;;;13.02;;
77586;SDS011;66744;49.716;17.158;2024-02-26T05:21:46;25.40;;;15.38;;
77586;SDS011;66744;49.716;17.158;2024-02-26T05:24:49;29.30;;;15.27;;
77586;SDS011;66744;49.716;17.158;2024-02-26T05:27:54;22.63;;;13.27;;
77586;SDS011;66744;49.716;17.158;2024-02-26T05:30:56;23.50;;;13.48;;
77586;SDS011;66744;49.716;17.158;2024-02-26T05:33:57;24.20;;;14.45;;
77586;SDS011;66744;49.716;17.158;2024-02-26T05:37:00;21.75;;;12.77;;
77586;SDS011;66744;49.716;17.158;2024-02-26T05:40:02;24.85;;;12.40;;
77586;SDS011;66744;49.716;17.158;2024-02-26T05:43:05;22.20;;;12.80;;
77586;SDS011;66744;49.716;17.158;2024-02-26T05:46:08;24.25;;;13.57;;
77586;SDS011;66744;49.716;17.158;2024-02-26T05:49:10;26.95;;;13.57;;
77586;SDS011;66744;49.716;17.158;2024-02-26T05:52:15;24.80;;;14.05;;
77586;SDS011;66744;49.716;17.158;2024-02-26T05:55:16;24.48;;;14.07;;
77586;SDS011;66744;49.716;17.158;2024-02-26T05:58:23;21.73;;;13.52;;
77586;SDS011;66744;49.716;17.158;2024-02-26T06:01:24;26.05;;;14.40;;
77586;SDS011;66744;49.716;17.158;2024-02-26T06:04:27;27.02;;;13.02;;
77586;SDS011;66744;49.716;17.158;2024-02-26T06:07:28;25.80;;;14.35;;
77586;SDS011;66744;49.716;17.158;2024-02-26T06:10:29;26.40;;;15.30;;
77586;SDS011;66744;49.716;17.158;2024-02-26T06:13:31;23.83;;;14.35;;
77586;SDS011;66744;49.716;17.158;2024-02-26T06:16:36;24.52;;;14.18;;
77586;SDS011;66744;49.716;17.158;2024-02-26T06:19:38;24.80;;;14.52;;
77586;SDS011;66744;49.716;17.158;2024-02-26T06:22:43;25.90;;;14.57;;
77586;SDS011;66744;49.716;17.158;2024-02-26T06:25:46;24.63;;;14.75;;
77586;SDS011;66744;49.716;17.158;2024-02-26T06:28:49;26.05;;;14.55;;
77586;SDS011;66744;49.716;17.158;2024-02-26T06:31:52;24.42;;;14.25;;
77586;SDS011;66744;49.716;17.158;2024-02-26T06:34:53;27.00;;;15.25;;
77586;SDS011;66744;49.716;17.158;2024-02-26T06:37:55;25.73;;;14.88;;
77586;SDS011;66744;49.716;17.158;2024-02-26T06:40:58;22.95;;;13.55;;
77586;SDS011;66744;49.716;17.158;2024-02-26T06:43:59;25.10;;;13.95;;
77586;SDS011;66744;49.716;17.158;2024-02-26T06:47:01;24.83;;;14.63;;
77586;SDS011;66744;49.716;17.158;2024-02-26T06:50:03;23.35;;;12.98;;
77586;SDS011;66744;49.716;17.158;2024-02-26T06:53:06;20.83;;;12.90;;
77586;SDS011;66744;49.716;17.158;2024-02-26T06:56:13;21.13;;;12.43;;
77586;SDS011;66744;49.716;17.158;2024-02-26T06:59:16;19.05;;;11.57;;
77586;SDS011;66744;49.716;17.158;2024-02-26T07:02:18;20.25;;;11.45;;
77586;SDS011;66744;49.716;17.158;2024-02-26T07:05:20;18.80;;;10.38;;
77586;SDS011;66744;49.716;17.158;2024-02-26T07:08:23;15.77;;;8.85;;
77586;SDS011;66744;49.716;17.158;2024-02-26T07:11:27;16.58;;;9.15;;
77586;SDS011;66744;49.716;17.158;2024-02-26T07:14:28;14.95;;;8.23;;
77586;SDS011;66744;49.716;17.158;2024-02-26T07:17:36;12.90;;;7.95;;
77586;SDS011;66744;49.716;17.158;2024-02-26T07:20:42;15.50;;;7.82;;
77586;SDS011;66744;49.716;17.158;2024-02-26T07:23:45;11.55;;;7.47;;
77586;SDS011;66744;49.716;17.158;2024-02-26T07:26:50;12.55;;;6.93;;
77586;SDS011;66744;49.716;17.158;2024-02-26T07:29:51;12.30;;;7.18;;
77586;SDS011;66744;49.716;17.158;2024-02-26T07:32:54;14.20;;;7.25;;
77586;SDS011;66744;49.716;17.158;2024-02-26T07:35:59;9.70;;;6.63;;
77586;SDS011;66744;49.716;17.158;2024-02-26T07:39:04;13.35;;;7.00;;
77586;SDS011;66744;49.716;17.158;2024-02-26T07:42:07;13.40;;;6.60;;
77586;SDS011;66744;49.716;17.158;2024-02-26T07:45:11;10.70;;;6.53;;
77586;SDS011;66744;49.716;17.158;2024-02-26T07:48:15;10.90;;;6.32;;
77586;SDS011;66744;49.716;17.158;2024-02-26T07:51:20;10.63;;;6.43;;
77586;SDS011;66744;49.716;17.158;2024-02-26T07:54:22;9.20;;;5.65;;
77586;SDS011;66744;49.716;17.158;2024-02-26T07:57:24;10.57;;;5.32;;
77586;SDS011;66744;49.716;17.158;2024-02-26T08:00:27;8.32;;;5.13;;
77586;SDS011;66744;49.716;17.158;2024-02-26T08:03:30;8.90;;;5.10;;
77586;SDS011;66744;49.716;17.158;2024-02-26T08:06:31;6.47;;;4.40;;
77586;SDS011;66744;49.716;17.158;2024-02-26T08:09:35;7.60;;;4.47;;
77586;SDS011;66744;49.716;17.158;2024-02-26T08:12:38;7.10;;;4.10;;
77586;SDS011;66744;49.716;17.158;2024-02-26T08:15:39;6.95;;;4.40;;
77586;SDS011;66744;49.716;17.158;2024-02-26T08:18:41;7.90;;;3.88;;
77586;SDS011;66744;49.716;17.158;2024-02-26T08:21:43;7.03;;;4.85;;
77586;SDS011;66744;49.716;17.158;2024-02-26T08:24:50;6.82;;;4.53;;
77586;SDS011;66744;49.716;17.158;2024-02-26T08:27:52;9.60;;;4.18;;
77586;SDS011;66744;49.716;17.158;2024-02-26T08:30:54;7.40;;;4.18;;
77586;SDS011;66744;49.716;17.158;2024-02-26T08:33:58;7.53;;;3.78;;
77586;SDS011;66744;49.716;17.158;2024-02-26T08:37:05;4.30;;;3.05;;
77586;SDS011;66744;49.716;17.158;2024-02-26T08:40:07;4.70;;;3.35;;
77586;SDS011;66744;49.716;17.158;2024-02-26T08:43:10;5.95;;;3.63;;
77586;SDS011;66744;49.716;17.158;2024-02-26T08:46:15;5.75;;;3.38;;
77586;SDS011;66744;49.716;17.158;2024-02-26T08:49:22;7.22;;;3.60;;
77586;SDS011;66744;49.716;17.158;2024-02-26T08:52:28;7.22;;;3.28;;
77586;SDS011;66744;49.716;17.158;2024-02-26T08:55:30;6.68;;;3.35;;
77586;SDS011;66744;49.716;17.158;2024-02-26T08:58:34;6.35;;;3.17;;
77586;SDS011;66744;49.716;17.158;2024-02-26T09:01:37;4.47;;;3.40;;
77586;SDS011;66744;49.716;17.158;2024-02-26T09:04:38;5.13;;;3.65;;
77586;SDS011;66744;49.716;17.158;2024-02-26T09:07:42;7.40;;;3.42;;
77586;SDS011;66744;49.716;17.158;2024-02-26T09:10:45;8.25;;;4.15;;
77586;SDS011;66744;49.716;17.158;2024-02-26T09:13:47;5.25;;;3.60;;
77586;SDS011;66744;49.716;17.158;2024-02-26T09:16:56;7.03;;;4.07;;
77586;SDS011;66744;49.716;17.158;2024-02-26T09:19:57;6.57;;;3.47;;
77586;SDS011;66744;49.716;17.158;2024-02-26T09:22:58;5.50;;;3.85;;
77586;SDS011;66744;49.716;17.158;2024-02-26T09:26:01;6.30;;;3.80;;
77586;SDS011;66744;49.716;17.158;2024-02-26T09:29:06;9.48;;;4.65;;
77586;SDS011;66744;49.716;17.158;2024-02-26T09:35:16;6.47;;;3.83;;
77586;SDS011;66744;49.716;17.158;2024-02-26T09:38:21;4.65;;;3.15;;
77586;SDS011;66744;49.716;17.158;2024-02-26T09:41:28;5.65;;;3.50;;
77586;SDS011;66744;49.716;17.158;2024-02-26T09:44:32;8.50;;;3.65;;
77586;SDS011;66744;49.716;17.158;2024-02-26T09:47:43;7.93;;;3.55;;
77586;SDS011;66744;49.716;17.158;2024-02-26T09:50:47;5.13;;;3.08;;
77586;SDS011;66744;49.716;17.158;2024-02-26T09:53:51;7.28;;;3.42;;
77586;SDS011;66744;49.716;17.158;2024-02-26T09:56:55;7.93;;;3.65;;
77586;SDS011;66744;49.716;17.158;2024-02-26T10:00:03;5.10;;;3.25;;
77586;SDS011;66744;49.716;17.158;2024-02-26T10:03:09;6.30;;;3.05;;
77586;SDS011;66744;49.716;17.158;2024-02-26T10:06:17;4.63;;;2.55;;
77586;SDS011;66744;49.716;17.158;2024-02-26T10:09:21;7.57;;;2.65;;
77586;SDS011;66744;49.716;17.158;2024-02-26T10:12:23;4.15;;;2.30;;
77586;SDS011;66744;49.716;17.158;2024-02-26T10:15:30;4.43;;;2.25;;
77586;SDS011;66744;49.716;17.158;2024-02-26T10:18:49;3.85;;;2.30;;
77586;SDS011;66744;49.716;17.158;2024-02-26T10:21:56;4.55;;;2.35;;
77586;SDS011;66744;49.716;17.158;2024-02-26T10:24:58;4.88;;;2.42;;
77586;SDS011;66744;49.716;17.158;2024-02-26T10:28:02;5.00;;;1.98;;
77586;SDS011;66744;49.716;17.158;2024-02-26T10:31:05;3.80;;;2.17;;
77586;SDS011;66744;49.716;17.158;2024-02-26T10:34:12;3.70;;;2.13;;
77586;SDS011;66744;49.716;17.158;2024-02-26T10:37:17;6.28;;;2.28;;
77586;SDS011;66744;49.716;17.158;2024-02-26T10:40:19;4.82;;;2.10;;
77586;SDS011;66744;49.716;17.158;2024-02-26T10:43:24;3.35;;;2.22;;
77586;SDS011;66744;49.716;17.158;2024-02-26T10:46:29;6.05;;;2.33;;
77586;SDS011;66744;49.716;17.158;2024-02-26T10:49:31;3.65;;;2.50;;
77586;SDS011;66744;49.716;17.158;2024-02-26T10:52:36;5.00;;;2.33;;
77586;SDS011;66744;49.716;17.158;2024-02-26T10:55:37;5.00;;;2.40;;
77586;SDS011;66744;49.716;17.158;2024-02-26T10:58:41;4.65;;;2.42;;
77586;SDS011;66744;49.716;17.158;2024-02-26T11:01:48;2.95;;;1.92;;
77586;SDS011;66744;49.716;17.158;2024-02-26T11:04:52;5.70;;;3.58;;
77586;SDS011;66744;49.716;17.158;2024-02-26T11:07:53;6.47;;;3.90;;
77586;SDS011;66744;49.716;17.158;2024-02-26T11:10:56;3.00;;;2.13;;
77586;SDS011;66744;49.716;17.158;2024-02-26T11:14:00;4.72;;;2.95;;
77586;SDS011;66744;49.716;17.158;2024-02-26T11:17:10;4.18;;;2.53;;
77586;SDS011;66744;49.716;17.158;2024-02-26T11:20:13;7.70;;;4.18;;
77586;SDS011;66744;49.716;17.158;2024-02-26T11:23:18;4.15;;;2.60;;
77586;SDS011;66744;49.716;17.158;2024-02-26T11:26:22;3.95;;;2.22;;
77586;SDS011;66744;49.716;17.158;2024-02-26T11:29:27;5.85;;;2.83;;
77586;SDS011;66744;49.716;17.158;2024-02-26T11:32:35;4.35;;;2.70;;
77586;SDS011;66744;49.716;17.158;2024-02-26T11:35:37;3.92;;;1.88;;
77586;SDS011;66744;49.716;17.158;2024-02-26T11:38:39;5.38;;;2.67;;
77586;SDS011;66744;49.716;17.158;2024-02-26T11:41:42;4.78;;;1.90;;
77586;SDS011;66744;49.716;17.158;2024-02-26T11:44:46;3.92;;;2.30;;
77586;SDS011;66744;49.716;17.158;2024-02-26T11:47:55;4.20;;;2.28;;
77586;SDS011;66744;49.716;17.158;2024-02-26T11:50:58;2.60;;;2.10;;
77586;SDS011;66744;49.716;17.158;2024-02-26T11:54:01;3.30;;;2.20;;
77586;SDS011;66744;49.716;17.158;2024-02-26T11:57:19;3.67;;;1.90;;
77586;SDS011;66744;49.716;17.158;2024-02-26T12:00:42;3.83;;;2.13;;
77586;SDS011;66744;49.716;17.158;2024-02-26T12:03:45;1.83;;;1.55;;
77586;SDS011;66744;49.716;17.158;2024-02-26T12:06:50;2.88;;;1.80;;
77586;SDS011;66744;49.716;17.158;2024-02-26T12:13:45;3.35;;;1.80;;
77586;SDS011;66744;49.716;17.158;2024-02-26T12:16:50;4.38;;;2.22;;
77586;SDS011;66744;49.716;17.158;2024-02-26T12:20:09;3.70;;;1.63;;
77586;SDS011;66744;49.716;17.158;2024-02-26T12:23:23;3.70;;;1.73;;
77586;SDS011;66744;49.716;17.158;2024-02-26T12:26:25;2.65;;;1.55;;
77586;SDS011;66744;49.716;17.158;2024-02-26T12:29:28;5.57;;;2.45;;
77586;SDS011;66744;49.716;17.158;2024-02-26T12:32:34;3.53;;;2.13;;
77586;SDS011;66744;49.716;17.158;2024-02-26T12:35:39;3.33;;;2.33;;
77586;SDS011;66744;49.716;17.158;2024-02-26T12:38:42;3.83;;;2.30;;
77586;SDS011;66744;49.716;17.158;2024-02-26T12:41:46;2.30;;;1.77;;
77586;SDS011;66744;49.716;17.158;2024-02-26T12:44:52;5.05;;;2.40;;
77586;SDS011;66744;49.716;17.158;2024-02-26T12:47:55;3.03;;;1.83;;
77586;SDS011;66744;49.716;17.158;2024-02-26T12:50:57;4.05;;;1.83;;
77586;SDS011;66744;49.716;17.158;2024-02-26T12:54:02;4.82;;;2.42;;
77586;SDS011;66744;49.716;17.158;2024-02-26T12:57:04;4.82;;;2.42;;
77586;SDS011;66744;49.716;17.158;2024-02-26T13:00:10;4.28;;;2.45;;
77586;SDS011;66744;49.716;17.158;2024-02-26T13:03:13;5.18;;;2.50;;
77586;SDS011;66744;49.716;17.158;2024-02-26T13:06:18;4.32;;;2.20;;
77586;SDS011;66744;49.716;17.158;2024-02-26T13:09:20;3.55;;;2.50;;
77586;SDS011;66744;49.716;17.158;2024-02-26T13:12:23;3.45;;;2.25;;
77586;SDS011;66744;49.716;17.158;2024-02-26T13:15:26;6.60;;;3.30;;
77586;SDS011;66744;49.716;17.158;2024-02-26T13:18:28;3.28;;;2.53;;
77586;SDS011;66744;49.716;17.158;2024-02-26T13:21:32;4.15;;;2.83;;
77586;SDS011;66744;49.716;17.158;2024-02-26T13:24:35;3.72;;;2.63;;
77586;SDS011;66744;49.716;17.158;2024-02-26T13:27:37;11.02;;;2.55;;
77586;SDS011;66744;49.716;17.158;2024-02-26T13:30:39;4.78;;;2.75;;
77586;SDS011;66744;49.716;17.158;2024-02-26T13:33:41;3.88;;;2.33;;
77586;SDS011;66744;49.716;17.158;2024-02-26T13:36:48;4.68;;;2.35;;
77586;SDS011;66744;49.716;17.158;2024-02-26T13:39:51;4.65;;;2.60;;
77586;SDS011;66744;49.716;17.158;2024-02-26T13:42:53;3.70;;;2.72;;
77586;SDS011;66744;49.716;17.158;2024-02-26T13:45:55;6.57;;;3.40;;
77586;SDS011;66744;49.716;17.158;2024-02-26T13:49:00;6.43;;;3.40;;
77586;SDS011;66744;49.716;17.158;2024-02-26T13:52:03;5.32;;;2.75;;
77586;SDS011;66744;49.716;17.158;2024-02-26T13:55:05;6.43;;;3.25;;
77586;SDS011;66744;49.716;17.158;2024-02-26T13:58:08;6.63;;;2.80;;
77586;SDS011;66744;49.716;17.158;2024-02-26T14:01:13;6.00;;;3.00;;
77586;SDS011;66744;49.716;17.158;2024-02-26T14:04:18;3.97;;;2.80;;
77586;SDS011;66744;49.716;17.158;2024-02-26T14:07:22;4.30;;;3.00;;
77586;SDS011;66744;49.716;17.158;2024-02-26T14:10:23;5.35;;;3.33;;
77586;SDS011;66744;49.716;17.158;2024-02-26T14:13:28;6.30;;;3.22;;
77586;SDS011;66744;49.716;17.158;2024-02-26T14:16:31;5.07;;;3.88;;
77586;SDS011;66744;49.716;17.158;2024-02-26T14:19:33;4.25;;;2.80;;
77586;SDS011;66744;49.716;17.158;2024-02-26T14:22:35;3.72;;;2.50;;
77586;SDS011;66744;49.716;17.158;2024-02-26T14:25:37;4.15;;;3.10;;
77586;SDS011;66744;49.716;17.158;2024-02-26T14:28:41;4.07;;;2.60;;
77586;SDS011;66744;49.716;17.158;2024-02-26T14:31:43;5.93;;;3.33;;
77586;SDS011;66744;49.716;17.158;2024-02-26T14:34:44;5.07;;;2.78;;
77586;SDS011;66744;49.716;17.158;2024-02-26T14:37:48;4.45;;;2.03;;
77586;SDS011;66744;49.716;17.158;2024-02-26T14:40:53;5.97;;;2.58;;
77586;SDS011;66744;49.716;17.158;2024-02-26T14:43:56;4.60;;;2.50;;
77586;SDS011;66744;49.716;17.158;2024-02-26T14:46:58;4.15;;;2.47;;
77586;SDS011;66744;49.716;17.158;2024-02-26T14:50:00;4.15;;;2.28;;
77586;SDS011;66744;49.716;17.158;2024-02-26T14:53:06;5.93;;;3.40;;
77586;SDS011;66744;49.716;17.158;2024-02-26T14:56:08;4.95;;;2.45;;
77586;SDS011;66744;49.716;17.158;2024-02-26T14:59:11;3.58;;;2.13;;
77586;SDS011;66744;49.716;17.158;2024-02-26T15:02:12;4.45;;;2.60;;
77586;SDS011;66744;49.716;17.158;2024-02-26T15:05:22;5.82;;;2.05;;
77586;SDS011;66744;49.716;17.158;2024-02-26T15:08:24;7.15;;;2.35;;
77586;SDS011;66744;49.716;17.158;2024-02-26T15:11:28;3.33;;;2.17;;
77586;SDS011;66744;49.716;17.158;2024-02-26T15:14:31;3.95;;;1.73;;
77586;SDS011;66744;49.716;17.158;2024-02-26T15:17:34;5.82;;;2.45;;
77586;SDS011;66744;49.716;17.158;2024-02-26T15:20:37;6.07;;;1.90;;
77586;SDS011;66744;49.716;17.158;2024-02-26T15:23:43;4.63;;;2.75;;
77586;SDS011;66744;49.716;17.158;2024-02-26T15:26:48;3.42;;;1.90;;
77586;SDS011;66744;49.716;17.158;2024-02-26T15:29:50;4.25;;;2.15;;
77586;SDS011;66744;49.716;17.158;2024-02-26T15:32:59;3.25;;;2.20;;
77586;SDS011;66744;49.716;17.158;2024-02-26T15:36:03;3.00;;;1.98;;
77586;SDS011;66744;49.716;17.158;2024-02-26T15:39:05;4.25;;;2.38;;
77586;SDS011;66744;49.716;17.158;2024-02-26T15:42:08;4.05;;;2.30;;
77586;SDS011;66744;49.716;17.158;2024-02-26T15:45:10;3.72;;;2.40;;
77586;SDS011;66744;49.716;17.158;2024-02-26T15:48:16;4.10;;;2.45;;
77586;SDS011;66744;49.716;17.158;2024-02-26T15:51:18;4.43;;;2.50;;
77586;SDS011;66744;49.716;17.158;2024-02-26T15:54:23;6.13;;;2.90;;
77586;SDS011;66744;49.716;17.158;2024-02-26T15:57:25;6.65;;;2.53;;
77586;SDS011;66744;49.716;17.158;2024-02-26T16:00:28;5.47;;;2.53;;
77586;SDS011;66744;49.716;17.158;2024-02-26T16:03:30;5.38;;;2.60;;
77586;SDS011;66744;49.716;17.158;2024-02-26T16:06:39;8.20;;;4.93;;
77586;SDS011;66744;49.716;17.158;2024-02-26T16:09:49;6.22;;;3.13;;
77586;SDS011;66744;49.716;17.158;2024-02-26T16:13:01;6.90;;;3.00;;
77586;SDS011;66744;49.716;17.158;2024-02-26T16:16:12;4.95;;;2.45;;
77586;SDS011;66744;49.716;17.158;2024-02-26T16:19:22;4.78;;;2.88;;
77586;SDS011;66744;49.716;17.158;2024-02-26T16:22:24;6.70;;;3.10;;
77586;SDS011;66744;49.716;17.158;2024-02-26T16:25:26;8.30;;;3.05;;
77586;SDS011;66744;49.716;17.158;2024-02-26T16:28:30;5.97;;;3.25;;
77586;SDS011;66744;49.716;17.158;2024-02-26T16:31:33;6.03;;;3.15;;
77586;SDS011;66744;49.716;17.158;2024-02-26T16:34:37;6.80;;;3.75;;
77586;SDS011;66744;49.716;17.158;2024-02-26T16:37:40;6.40;;;3.85;;
77586;SDS011;66744;49.716;17.158;2024-02-26T16:40:47;25.52;;;12.07;;
77586;SDS011;66744;49.716;17.158;2024-02-26T16:43:51;44.38;;;21.90;;
77586;SDS011;66744;49.716;17.158;2024-02-26T16:46:55;37.50;;;18.35;;
77586;SDS011;66744;49.716;17.158;2024-02-26T16:49:58;16.05;;;10.02;;
77586;SDS011;66744;49.716;17.158;2024-02-26T16:53:04;13.25;;;9.20;;
77586;SDS011;66744;49.716;17.158;2024-02-26T16:56:16;12.95;;;9.07;;
77586;SDS011;66744;49.716;17.158;2024-02-26T16:59:18;14.43;;;9.25;;
77586;SDS011;66744;49.716;17.158;2024-02-26T17:02:28;9.32;;;5.60;;
77586;SDS011;66744;49.716;17.158;2024-02-26T17:05:35;8.85;;;4.72;;
77586;SDS011;66744;49.716;17.158;2024-02-26T17:08:38;7.80;;;5.00;;
77586;SDS011;66744;49.716;17.158;2024-02-26T17:11:42;9.35;;;5.50;;
77586;SDS011;66744;49.716;17.158;2024-02-26T17:14:47;8.20;;;4.97;;
77586;SDS011;66744;49.716;17.158;2024-02-26T17:17:52;8.93;;;5.32;;
77586;SDS011;66744;49.716;17.158;2024-02-26T17:20:54;9.63;;;5.78;;
77586;SDS011;66744;49.716;17.158;2024-02-26T17:24:01;8.35;;;4.85;;
77586;SDS011;66744;49.716;17.158;2024-02-26T17:27:04;7.03;;;5.00;;
77586;SDS011;66744;49.716;17.158;2024-02-26T17:30:11;12.80;;;5.78;;
77586;SDS011;66744;49.716;17.158;2024-02-26T17:33:15;10.68;;;6.35;;
77586;SDS011;66744;49.716;17.158;2024-02-26T17:36:18;13.82;;;9.95;;
77586;SDS011;66744;49.716;17.158;2024-02-26T17:39:20;12.13;;;7.63;;
77586;SDS011;66744;49.716;17.158;2024-02-26T17:42:27;15.38;;;8.20;;
77586;SDS011;66744;49.716;17.158;2024-02-26T17:45:32;14.60;;;8.93;;
77586;SDS011;66744;49.716;17.158;2024-02-26T17:48:36;12.98;;;8.23;;
77586;SDS011;66744;49.716;17.158;2024-02-26T17:51:39;10.25;;;6.90;;
77586;SDS011;66744;49.716;17.158;2024-02-26T17:54:41;11.18;;;8.30;;
77586;SDS011;66744;49.716;17.158;2024-02-26T17:57:43;14.48;;;9.15;;
77586;SDS011;66744;49.716;17.158;2024-02-26T18:00:47;12.43;;;8.00;;
77586;SDS011;66744;49.716;17.158;2024-02-26T18:03:54;14.82;;;8.95;;
77586;SDS011;66744;49.716;17.158;2024-02-26T18:06:56;15.88;;;9.98;;
77586;SDS011;66744;49.716;17.158;2024-02-26T18:09:58;16.23;;;8.77;;
77586;SDS011;66744;49.716;17.158;2024-02-26T18:13:03;16.15;;;8.95;;